Flight Track Log - Related Links

Times and Time Zones

All times are in EDT time to prevent confusion due to time zone crossing. See the SWA1969 flight status page for this flight to view local times or setup timezone preferences in your user account.

Time Position Orientation Groundspeed Altitude Reporting Facility
EDT Latitude Longitude Course Direction KTS MPH feet Rate Location/Type
Wed 01:30:31 PM 41.7833 -87.8167 257° West 199 229 2,700  Level Chicago TRACON
Wed 01:32:12 PM 41.7625 -87.9394 257° West 223 257 4,000 479 Climbing Chicago Center
Wed 01:33:14 PM 41.7536 -88.0442 264° West 246 283 4,000 387 Level Chicago Center
Wed 01:34:16 PM 41.7708 -88.1303 285° West 245 282 4,800 960 Climbing Chicago Center
Wed 01:35:19 PM 41.7892 -88.2175 286° West 245 282 6,000 2,112 Climbing Chicago Center
Wed 01:36:21 PM 41.8003 -88.3111 279° West 266 306 9,200 2,855 Climbing Chicago Center
Wed 01:37:23 PM 41.8061 -88.4089 275° West 265 305 11,900 1,742 Climbing Chicago Center
Wed 01:38:25 PM 41.7978 -88.5339 265° West 294 338 12,800 1,306 Climbing Chicago Center
Wed 01:39:27 PM 41.7719 -88.6547 254° West 332 382 14,600 2,081 Climbing Chicago Center
Wed 01:40:29 PM 41.7442 -88.7850 254° West 358 412 17,100 2,177 Climbing Chicago Center
Wed 01:41:31 PM 41.7139 -88.9181 253° West 374 430 19,100 2,081 Climbing Chicago Center
Wed 01:42:33 PM 41.6839 -89.0539 254° West 383 441 21,400 2,226 Climbing Chicago Center
Wed 01:43:35 PM 41.6464 -89.2175 253° West 385 443 23,700 1,839 Climbing Chicago Center
Wed 01:44:37 PM 41.6161 -89.3600 254° West 396 456 25,200 1,403 Climbing Chicago Center
Wed 01:45:39 PM 41.5833 -89.5042 253° West 406 467 26,600 1,548 Climbing Chicago Center
Wed 01:46:41 PM 41.5500 -89.6567 254° West 413 475 28,400 1,694 Climbing Chicago Center
Wed 01:47:43 PM 41.5181 -89.7992 253° West 405 466 30,100 1,500 Climbing Chicago Center
Wed 01:48:45 PM 41.4861 -89.9364 253° West 390 449 31,500 1,210 Climbing Chicago Center
Wed 01:49:47 PM 41.4467 -90.1061 253° West 399 459 32,600 1,258 Climbing Chicago Center
Wed 01:50:49 PM 41.4144 -90.2458 253° West 396 456 34,100 1,306 Climbing Chicago Center
Wed 01:51:51 PM 41.3831 -90.3797 253° West 383 441 35,300 919 Climbing Chicago Center
Wed 01:52:53 PM 41.3517 -90.5122 253° West 378 435 36,000 341 Climbing Chicago Center
Wed 01:53:54 PM 41.3189 -90.6467 252° West 390 449 36,000  Level Chicago Center
Wed 01:54:56 PM 41.2803 -90.7781 249° West 384 442 36,000  Level Chicago Center
Wed 01:55:58 PM 41.2336 -90.9342 248° West 380 437 36,000  Level Chicago Center
Wed 01:57:00 PM 41.1947 -91.0656 249° West 384 442 36,000  Level Chicago Center
Wed 01:58:02 PM 41.1569 -91.1961 249° West 382 440 36,000  Level Chicago Center
Wed 01:59:04 PM 41.1172 -91.3267 248° West 383 441 36,000  Level Chicago Center
Wed 02:00:06 PM 41.0778 -91.4569 248° West 381 438 36,000  Level Chicago Center
Wed 02:01:08 PM 41.0383 -91.5875 248° West 382 440 36,000  Level Chicago Center
Wed 02:02:10 PM 40.9950 -91.7303 248° West 379 436 36,000  Level Chicago Center
Wed 02:03:11 PM 40.9556 -91.8589 248° West 380 437 36,000  Level Chicago Center
Wed 02:04:13 PM 40.9164 -91.9861 248° West 378 435 36,000  Level Chicago Center
Wed 02:05:15 PM 40.8694 -92.1392 248° West 378 435 36,000  Level Chicago Center
Wed 02:06:17 PM 40.8294 -92.2658 247° West 377 434 36,000  Level Chicago Center
Wed 02:07:19 PM 40.7906 -92.3931 248° West 378 435 36,000  Level Chicago Center
Wed 02:08:21 PM 40.7503 -92.5197 247° West 380 437 36,000  Level Chicago Center
Wed 02:09:23 PM 40.7089 -92.6469 247° West 382 440 36,000  Level Chicago Center
Wed 02:10:24 PM 40.6614 -92.7992 248° West 380 437 36,000  Level Chicago Center
Wed 02:11:26 PM 40.6222 -92.9239 248° West 376 433 36,000  Level Chicago Center
Wed 02:12:28 PM 40.5819 -93.0467 247° West 372 428 36,000  Level Chicago Center
Wed 02:13:30 PM 40.5422 -93.1711 247° West 374 430 36,000  Level Chicago Center
Wed 02:14:32 PM 40.5028 -93.2950 247° West 371 427 36,000  Level Chicago Center
Wed 02:15:34 PM 40.4539 -93.4450 247° West 374 430 36,000  Level Chicago Center
Wed 02:16:36 PM 40.4139 -93.5706 247° West 376 433 36,000  Level Chicago Center
Wed 02:17:38 PM 40.3719 -93.6947 246° West 376 433 36,000  Level Chicago Center
Wed 02:18:40 PM 40.3317 -93.8211 247° West 379 436 36,000  Level Chicago Center
Wed 02:19:54 PM 40.2808 -93.9717 246° West 380 437 36,000  Level Kansas City Center
Wed 02:20:58 PM 40.2328 -94.1178 247° West 380 437 36,000  Level Kansas City Center
Wed 02:21:59 PM 40.1914 -94.2364 245° Southwest 378 435 36,000  Level Kansas City Center
Wed 02:22:59 PM 40.1447 -94.3750 246° West 374 430 36,000  Level Kansas City Center
Wed 02:24:02 PM 40.1056 -94.4933 247° West 373 429 36,000  Level Kansas City Center
Wed 02:25:04 PM 40.0603 -94.6289 246° West 366 421 36,000  Level Kansas City Center
Wed 02:26:07 PM 40.0211 -94.7439 246° West 365 420 36,000  Level Kansas City Center
Wed 02:27:07 PM 39.9756 -94.8772 246° West 361 415 36,000  Level Kansas City Center
Wed 02:28:11 PM 39.9356 -94.9914 245° Southwest 363 418 36,000  Level Kansas City Center
Wed 02:29:12 PM 39.8858 -95.1228 244° Southwest 364 419 36,000  Level Kansas City Center
Wed 02:30:13 PM 39.8444 -95.2378 245° Southwest 367 422 36,000  Level Kansas City Center
Wed 02:31:17 PM 39.7944 -95.3703 244° Southwest 367 422 36,000  Level Kansas City Center
Wed 02:32:18 PM 39.7522 -95.4836 244° Southwest 366 421 36,000  Level Kansas City Center
Wed 02:33:21 PM 39.7033 -95.6158 244° Southwest 365 420 36,000  Level Kansas City Center
Wed 02:34:22 PM 39.6622 -95.7292 245° Southwest 365 420 36,000  Level Kansas City Center
Wed 02:35:23 PM 39.6128 -95.8622 244° Southwest 370 426 36,000  Level Kansas City Center
Wed 02:36:28 PM 39.5722 -95.9756 245° Southwest 364 419 36,000  Level Kansas City Center
Wed 02:37:29 PM 39.5233 -96.1067 244° Southwest 363 418 36,000  Level Kansas City Center
Wed 02:38:31 PM 39.4819 -96.2158 244° Southwest 359 413 36,000  Level Kansas City Center
Wed 02:39:32 PM 39.4397 -96.3308 245° Southwest 355 409 36,000  Level Kansas City Center
Wed 02:40:35 PM 39.3964 -96.4439 244° Southwest 351 404 36,000  Level Kansas City Center
Wed 02:41:36 PM 39.3467 -96.5792 245° Southwest 350 403 36,000  Level Kansas City Center
Wed 02:42:40 PM 39.3058 -96.6864 244° Southwest 348 400 36,000  Level Kansas City Center
Wed 02:43:40 PM 39.2667 -96.7950 245° Southwest 347 399 36,000  Level Kansas City Center
Wed 02:44:44 PM 39.2172 -96.9208 243° Southwest 352 405 36,000  Level Kansas City Center
Wed 02:45:45 PM 39.1761 -97.0286 244° Southwest 350 403 36,000  Level Kansas City Center
Wed 02:46:48 PM 39.1283 -97.1547 244° Southwest 350 403 36,000  Level Kansas City Center
Wed 02:47:48 PM 39.0900 -97.2625 245° Southwest 347 399 36,000  Level Kansas City Center
Wed 02:48:52 PM 39.0425 -97.3844 243° Southwest 343 395 36,000  Level Kansas City Center
Wed 02:49:54 PM 39.0025 -97.4881 244° Southwest 339 390 36,000  Level Kansas City Center
Wed 02:50:56 PM 38.9569 -97.6078 244° Southwest 334 384 36,000  Level Kansas City Center
Wed 02:51:56 PM 38.9175 -97.7081 243° Southwest 330 380 36,000  Level Kansas City Center
Wed 02:52:58 PM 38.8719 -97.8231 243° Southwest 324 373 36,000  Level Kansas City Center
Wed 02:54:00 PM 38.8367 -97.9117 243° Southwest 324 373 36,000  Level Kansas City Center
Wed 02:55:02 PM 38.7894 -98.0339 244° Southwest 319 367 36,000  Level Kansas City Center
Wed 02:56:05 PM 38.7492 -98.1344 243° Southwest 319 367 36,000  Level Kansas City Center
Wed 02:57:06 PM 38.7097 -98.2367 244° Southwest 321 369 36,000  Level Kansas City Center
Wed 02:58:10 PM 38.6683 -98.3383 242° Southwest 322 371 36,000  Level Kansas City Center
Wed 02:59:11 PM 38.6283 -98.4411 244° Southwest 324 373 36,000  Level Kansas City Center
Wed 03:00:11 PM 38.5872 -98.5433 243° Southwest 325 374 36,000  Level Kansas City Center
Wed 03:01:15 PM 38.5381 -98.6664 243° Southwest 326 375 36,000  Level Kansas City Center
Wed 03:02:18 PM 38.4967 -98.7706 243° Southwest 329 379 36,000  Level Kansas City Center
Wed 03:03:18 PM 38.4547 -98.8742 243° Southwest 330 380 36,000  Level Kansas City Center
Wed 03:04:22 PM 38.4125 -98.9783 243° Southwest 331 381 36,000  Level Kansas City Center
Wed 03:05:23 PM 38.3703 -99.0814 242° Southwest 330 380 36,000  Level Kansas City Center
Wed 03:06:24 PM 38.3283 -99.1844 243° Southwest 329 379 36,000  Level Kansas City Center
Wed 03:07:25 PM 38.2764 -99.3092 242° Southwest 332 382 36,000  Level Kansas City Center
Wed 03:08:29 PM 38.2333 -99.4122 242° Southwest 332 382 36,000  Level Kansas City Center
Wed 03:09:31 PM 38.1875 -99.5275 243° Southwest 329 379 36,000  Level Kansas City Center
Wed 03:10:31 PM 38.1472 -99.6267 243° Southwest 329 379 36,000  Level Kansas City Center
Wed 03:11:35 PM 38.1050 -99.7239 241° Southwest 329 379 36,000  Level Kansas City Center
Wed 03:12:36 PM 38.0578 -99.8394 243° Southwest 330 380 36,000  Level Kansas City Center
Wed 03:13:39 PM 38.0158 -99.9403 242° Southwest 335 386 36,000  Level Kansas City Center
Wed 03:14:40 PM 37.9681 -100.0558 242° Southwest 333 383 36,000  Level Kansas City Center
Wed 03:15:43 PM 37.9258 -100.1572 242° Southwest 337 388 36,000  Level Kansas City Center
Wed 03:16:44 PM 37.8767 -100.2733 242° Southwest 335 386 36,000  Level Kansas City Center
Wed 03:17:47 PM 37.8333 -100.3739 241° Southwest 338 389 36,000  Level Kansas City Center
Wed 03:18:48 PM 37.7828 -100.4906 241° Southwest 339 390 36,000  Level Kansas City Center
Wed 03:19:52 PM 37.7442 -100.5819 242° Southwest 340 391 36,000  Level Kansas City Center
Wed 03:20:53 PM 37.6908 -100.7064 242° Southwest 337 388 36,000  Level Kansas City Center
Wed 03:21:54 PM 37.6456 -100.8111 241° Southwest 337 388 36,000  Level Kansas City Center
Wed 03:22:55 PM 37.6008 -100.9161 242° Southwest 338 389 36,000  Level Kansas City Center
Wed 03:23:58 PM 37.5528 -101.0247 241° Southwest 346 398 36,000  Level Kansas City Center
Wed 03:24:59 PM 37.5072 -101.1292 241° Southwest 343 395 36,000  Level Kansas City Center
Wed 03:26:02 PM 37.4606 -101.2381 242° Southwest 346 398 36,000  Level Kansas City Center
Wed 03:27:03 PM 37.4078 -101.3586 241° Southwest 350 403 36,000  Level Kansas City Center
Wed 03:28:07 PM 37.3625 -101.4608 241° Southwest 351 404 36,000  Level Kansas City Center
Wed 03:29:08 PM 37.3100 -101.5803 241° Southwest 349 402 36,000  Level Kansas City Center
Wed 03:30:09 PM 37.2647 -101.6825 241° Southwest 350 403 36,000  Level Kansas City Center
Wed 03:31:13 PM 37.2119 -101.8022 241° Southwest 350 403 36,000  Level Kansas City Center
Wed 03:32:14 PM 37.1664 -101.9053 241° Southwest 352 405 36,000  Level Kansas City Center
Wed 03:33:15 PM 37.1128 -102.0236 240° Southwest 351 404 36,000  Level Kansas City Center
Wed 03:34:18 PM 37.0672 -102.1267 241° Southwest 353 406 36,000  Level Kansas City Center
Wed 03:35:18 PM 37.0136 -102.2464 241° Southwest 353 406 36,000  Level Kansas City Center
Wed 03:35:33 PM 37.0064 -102.2636 242° Southwest 353 406 36,000  Level Albuquerque Center
Wed 03:36:35 PM 36.9619 -102.3872 246° West 348 400 36,000  Level Albuquerque Center
Wed 03:37:37 PM 36.9344 -102.4969 253° West 347 399 36,000  Level Albuquerque Center
Wed 03:38:39 PM 36.8997 -102.6244 251° West 347 399 36,000  Level Albuquerque Center
Wed 03:39:41 PM 36.8736 -102.7308 253° West 350 403 36,000  Level Albuquerque Center
Wed 03:40:43 PM 36.8428 -102.8467 252° West 350 403 36,000  Level Albuquerque Center
Wed 03:41:45 PM 36.8067 -102.9819 252° West 351 404 36,000  Level Albuquerque Center
Wed 03:42:47 PM 36.7756 -103.0964 251° West 348 400 36,000  Level Albuquerque Center
Wed 03:43:49 PM 36.7450 -103.2131 252° West 349 402 36,000  Level Albuquerque Center
Wed 03:44:51 PM 36.7144 -103.3275 252° West 348 400 36,000  Level Albuquerque Center
Wed 03:45:53 PM 36.6836 -103.4428 252° West 348 400 36,000  Level Albuquerque Center
Wed 03:46:55 PM 36.6517 -103.5578 251° West 349 402 36,000  Level Albuquerque Center
Wed 03:47:57 PM 36.6197 -103.6719 251° West 348 400 36,000  Level Albuquerque Center
Wed 03:48:59 PM 36.5836 -103.8078 252° West 350 403 36,000  Level Albuquerque Center
Wed 03:50:02 PM 36.5514 -103.9236 251° West 352 405 36,000  Level Albuquerque Center
Wed 03:51:03 PM 36.5197 -104.0392 251° West 352 405 36,000  Level Albuquerque Center
Wed 03:52:05 PM 36.4867 -104.1575 251° West 356 410 36,000  Level Albuquerque Center
Wed 03:53:07 PM 36.4528 -104.2783 251° West 363 418 36,000  Level Albuquerque Center
Wed 03:54:09 PM 36.4197 -104.3967 251° West 363 418 36,000  Level Albuquerque Center
Wed 03:55:12 PM 36.3864 -104.5156 251° West 362 417 36,000  Level Albuquerque Center
Wed 03:56:13 PM 36.3475 -104.6514 250° West 359 413 36,000  Level Albuquerque Center
Wed 03:57:15 PM 36.3144 -104.7681 251° West 358 412 36,000  Level Albuquerque Center
Wed 03:58:17 PM 36.2817 -104.8844 251° West 357 411 36,000  Level Albuquerque Center
Wed 03:59:19 PM 36.2478 -105.0019 250° West 359 413 36,000  Level Albuquerque Center
Wed 04:00:21 PM 36.2147 -105.1175 251° West 356 410 36,000  Level Albuquerque Center
Wed 04:01:23 PM 36.1817 -105.2314 250° West 352 405 36,000  Level Albuquerque Center
Wed 04:02:25 PM 36.1486 -105.3450 250° West 350 403 36,000  Level Albuquerque Center
Wed 04:03:27 PM 36.1100 -105.4772 250° West 348 400 36,000  Level Albuquerque Center
Wed 04:04:29 PM 36.0800 -105.5794 250° West 345 397 36,000  Level Albuquerque Center
Wed 04:05:31 PM 36.0475 -105.6911 250° West 345 397 36,000  Level Albuquerque Center
Wed 04:06:33 PM 36.0147 -105.8033 250° West 346 398 36,000  Level Albuquerque Center
Wed 04:07:35 PM 35.9819 -105.9139 250° West 345 397 36,000  Level Albuquerque Center
Wed 04:08:37 PM 35.9428 -106.0483 250° West 347 399 36,000  Level Albuquerque Center
Wed 04:09:38 PM 35.9078 -106.1631 249° West 355 409 36,000  Level Albuquerque Center
Wed 04:10:40 PM 35.8731 -106.2847 251° West 360 414 36,000  Level Albuquerque Center
Wed 04:11:42 PM 35.8411 -106.3917 250° West 352 405 36,000  Level Albuquerque Center
Wed 04:12:44 PM 35.8036 -106.5144 249° West 345 397 36,000  Level Albuquerque Center
Wed 04:13:46 PM 35.7719 -106.6192 250° West 342 394 36,000  Level Albuquerque Center
Wed 04:14:48 PM 35.7347 -106.7436 250° West 345 397 36,000  Level Albuquerque Center
Wed 04:15:50 PM 35.6994 -106.8511 248° West 351 404 36,000  Level Albuquerque Center
Wed 04:16:52 PM 35.6619 -106.9775 250° West 352 405 36,000  Level Albuquerque Center
Wed 04:17:54 PM 35.6300 -107.0803 249° West 356 410 36,000  Level Albuquerque Center
Wed 04:18:56 PM 35.5894 -107.2169 250° West 360 414 36,000  Level Albuquerque Center
Wed 04:19:58 PM 35.5536 -107.3281 248° West 363 418 36,000  Level Albuquerque Center
Wed 04:21:00 PM 35.5136 -107.4556 249° West 360 414 36,000  Level Albuquerque Center
Wed 04:22:02 PM 35.4792 -107.5647 249° West 358 412 36,000  Level Albuquerque Center
Wed 04:23:05 PM 35.4447 -107.6750 249° West 361 415 36,000 -96 Level Albuquerque Center
Wed 04:24:07 PM 35.4044 -107.8014 249° West 358 412 35,800 -532 Descending Albuquerque Center
Wed 04:25:09 PM 35.3708 -107.9119 250° West 359 413 34,900 -871 Descending Albuquerque Center
Wed 04:26:11 PM 35.3286 -108.0425 248° West 365 420 34,000 -435 Descending Albuquerque Center
Wed 04:27:13 PM 35.2931 -108.1556 249° West 368 423 34,000  Level Albuquerque Center
Wed 04:28:15 PM 35.2506 -108.2869 248° West 371 427 34,000  Level Albuquerque Center
Wed 04:29:17 PM 35.2133 -108.4014 248° West 374 430 34,000  Level Albuquerque Center
Wed 04:30:19 PM 35.1706 -108.5342 249° West 375 432 34,000  Level Albuquerque Center
Wed 04:31:21 PM 35.1331 -108.6497 248° West 378 435 34,000  Level Albuquerque Center
Wed 04:32:23 PM 35.0897 -108.7833 248° West 378 435 34,000  Level Albuquerque Center
Wed 04:33:25 PM 35.0528 -108.8972 248° West 378 435 34,000  Level Albuquerque Center
Wed 04:34:27 PM 35.0139 -109.0106 247° West 377 434 34,000  Level Albuquerque Center
Wed 04:35:29 PM 34.9706 -109.1456 249° West 379 436 34,000  Level Albuquerque Center
Wed 04:36:31 PM 34.9306 -109.2586 247° West 379 436 34,000  Level Albuquerque Center
Wed 04:37:33 PM 34.8814 -109.3900 246° West 381 438 34,000  Level Albuquerque Center
Wed 04:38:35 PM 34.8403 -109.5000 246° West 376 433 34,000  Level Albuquerque Center
Wed 04:39:37 PM 34.7919 -109.6283 245° Southwest 371 427 34,000  Level Albuquerque Center
Wed 04:40:39 PM 34.7508 -109.7406 246° West 377 434 34,000  Level Albuquerque Center
Wed 04:41:41 PM 34.7025 -109.8731 246° West 382 440 34,000  Level Albuquerque Center
Wed 04:42:43 PM 34.6603 -109.9869 246° West 385 443 34,000  Level Albuquerque Center
Wed 04:43:45 PM 34.6103 -110.1239 246° West 397 457 34,000  Level Albuquerque Center
Wed 04:44:47 PM 34.5694 -110.2403 247° West 394 453 34,000 -242 Level Albuquerque Center
Wed 04:45:49 PM 34.5247 -110.3450 243° Southwest 370 426 33,500 -1,452 Descending Albuquerque Center
Wed 04:46:51 PM 34.4861 -110.4597 248° West 364 419 31,000 -2,081 Descending Albuquerque Center
Wed 04:47:53 PM 34.4458 -110.5672 246° West 354 407 29,200 -1,935 Descending Albuquerque Center
Wed 04:48:55 PM 34.3978 -110.6906 245° Southwest 341 392 27,000 -1,887 Descending Albuquerque Center
Wed 04:49:57 PM 34.3550 -110.7883 242° Southwest 332 382 25,300 -1,645 Descending Albuquerque Center
Wed 04:50:59 PM 34.2950 -110.8722 229° Southwest 330 380 23,600 -1,632 Descending Albuquerque Center
Wed 04:52:02 PM 34.2317 -110.9544 227° Southwest 334 384 21,900 -1,694 Descending Albuquerque Center
Wed 04:53:03 PM 34.1697 -111.0342 227° Southwest 329 379 20,100 -1,742 Descending Albuquerque Center
Wed 04:54:06 PM 34.1108 -111.1108 227° Southwest 318 366 18,300 -1,872 Descending Albuquerque Center
Wed 04:55:08 PM 34.0386 -111.2028 227° Southwest 314 361 16,200 -1,839 Descending Albuquerque Center
Wed 04:56:10 PM 33.9800 -111.2781 227° Southwest 310 357 14,500 -1,500 Descending Albuquerque Center
Wed 04:57:12 PM 33.9219 -111.3539 227° Southwest 306 352 13,100 -968 Descending Albuquerque Center
Wed 04:58:14 PM 33.8669 -111.4183 224° Southwest 275 316 12,500 -677 Descending Albuquerque Center
Wed 04:59:16 PM 33.8122 -111.4644 215° Southwest 243 280 11,700 -968 Descending Albuquerque Center
Wed 05:00:18 PM 33.7594 -111.5094 215° Southwest 234 269 10,500 -1,161 Descending Albuquerque Center
Wed 05:01:20 PM 33.7072 -111.5556 216° Southwest 231 266 9,300 -1,210 Descending Albuquerque Center
Wed 05:02:22 PM 33.6447 -111.6092 216° Southwest 231 266 8,000 -1,210 Descending Albuquerque Center
Wed 05:03:24 PM 33.5919 -111.6519 214° Southwest 229 264 6,800 -1,065 Descending Albuquerque Center
Wed 05:04:26 PM 33.5414 -111.6983 217° Southwest 227 261 5,800 -919 Descending Albuquerque Center
Wed 05:05:28 PM 33.4969 -111.7506 224° Southwest 225 259 4,900 -823 Descending Albuquerque Center
Wed 05:06:30 PM 33.4686 -111.8147 242° Southwest 219 252 4,100 -968 Descending Albuquerque Center
Wed 05:07:32 PM 33.4422 -111.8758 243° Southwest 207 238 2,900 -1,016 Descending Albuquerque Center
Wed 05:08:34 PM 33.4408 -111.9339 268° West 181 208 2,000 -823 Descending Albuquerque Center
Wed 05:09:36 PM 33.4403 -111.9892 269° West 161 185 1,200 -774 Descending Albuquerque Center
Wed 05:11:00 PM 33.4343 -112.0116 270° West  Level Estimated

Login

Don't have an account? Register now (free) for customized features, flight alerts, and more!